Time;durP1;ratioP1;P1;durP2;ratioP2;P2;SDS_P1;SDS_P2;PMS_P1;PMS_P2;Temp;Humidity;BMP_temperature;BMP_pressure;BME280_temperature;BME280_humidity;BME280_pressure;Samples;Min_cycle;Max_cycle;Signal;HPM_P1;HPM_P2
2022/05/15 00:02:07;;;;;;;6.70;2.93;;;11.80;99.90;;;;;;5074083;28;20561;-56
2022/05/15 00:04:34;;;;;;;6.53;3.07;;;11.70;99.90;;;;;;5073762;28;20221;-57
2022/05/15 00:07:01;;;;;;;5.40;3.07;;;11.70;99.90;;;;;;5073722;28;20207;-57
2022/05/15 00:09:28;;;;;;;5.50;2.90;;;11.70;99.90;;;;;;5073733;28;20197;-59
2022/05/15 00:11:55;;;;;;;6.40;2.90;;;11.70;99.90;;;;;;5073914;28;20205;-57
2022/05/15 00:14:22;;;;;;;6.90;2.90;;;11.70;99.90;;;;;;5073687;28;20205;-57
2022/05/15 00:16:48;;;;;;;4.43;2.60;;;11.70;99.90;;;;;;5073713;28;20226;-59
2022/05/15 00:19:16;;;;;;;7.43;3.20;;;11.70;99.90;;;;;;5073073;28;20598;-57
2022/05/15 00:21:43;;;;;;;6.33;2.93;;;11.70;99.90;;;;;;5073767;28;20211;-56
2022/05/15 00:24:10;;;;;;;7.13;3.07;;;11.70;99.90;;;;;;5073694;28;20664;-57
2022/05/15 00:26:37;;;;;;;7.10;3.73;;;11.70;99.90;;;;;;5073742;28;20295;-55
2022/05/15 00:29:04;;;;;;;5.87;3.37;;;11.70;99.90;;;;;;5073217;28;20208;-56
2022/05/15 00:31:31;;;;;;;5.27;3.03;;;11.60;99.90;;;;;;5073327;28;20211;-57
2022/05/15 00:33:57;;;;;;;6.10;3.17;;;11.60;99.90;;;;;;5073370;28;20204;-58
2022/05/15 00:36:25;;;;;;;7.27;3.00;;;11.60;99.90;;;;;;5073320;28;20215;-58
2022/05/15 00:38:52;;;;;;;9.83;3.40;;;11.60;99.90;;;;;;5073308;28;20220;-57
2022/05/15 00:41:19;;;;;;;7.53;3.10;;;11.60;99.90;;;;;;5073183;28;20603;-60
2022/05/15 00:43:48;;;;;;;7.90;3.33;;;11.50;99.90;;;;;;5073187;28;20565;-56
2022/05/15 00:46:19;;;;;;;7.97;3.47;;;11.50;99.90;;;;;;5073078;28;20205;-57
2022/05/15 00:48:46;;;;;;;7.03;3.50;;;11.50;99.90;;;;;;5073285;28;20189;-58
2022/05/15 00:51:19;;;;;;;8.70;3.33;;;11.50;99.90;;;;;;5072993;28;20208;-55
2022/05/15 00:53:49;;;;;;;8.30;3.10;;;11.40;99.90;;;;;;5073276;28;20189;-59
2022/05/15 00:56:18;;;;;;;11.63;3.37;;;11.40;99.90;;;;;;5072899;28;20196;-57
2022/05/15 00:58:50;;;;;;;7.87;3.40;;;11.40;99.90;;;;;;5072770;28;20228;-57
2022/05/15 01:01:19;;;;;;;7.07;3.50;;;11.30;99.90;;;;;;5072831;28;20654;-56
2022/05/15 01:03:46;;;;;;;6.47;3.37;;;11.30;99.90;;;;;;5072687;28;20211;-58
2022/05/15 01:06:13;;;;;;;12.10;3.57;;;11.20;99.90;;;;;;5072277;28;20212;-54
2022/05/15 01:08:40;;;;;;;7.03;3.30;;;11.20;99.90;;;;;;5072834;28;20658;-56
2022/05/15 01:11:12;;;;;;;11.23;3.40;;;11.20;99.90;;;;;;5072732;28;20214;-57
2022/05/15 01:13:41;;;;;;;6.17;3.20;;;11.10;99.90;;;;;;5072542;28;20641;-57
2022/05/15 01:16:08;;;;;;;4.53;3.20;;;11.10;99.90;;;;;;5072527;28;20205;-56
2022/05/15 01:18:37;;;;;;;7.03;3.20;;;11.10;99.90;;;;;;5072111;28;20243;-58
2022/05/15 01:21:22;;;;;;;4.60;3.40;;;11.10;99.90;;;;;;5072554;28;20200;-58
2022/05/15 01:23:48;;;;;;;5.77;3.40;;;11.00;99.90;;;;;;5072667;28;20552;-57
2022/05/15 01:26:16;;;;;;;6.80;3.23;;;11.00;99.90;;;;;;5072224;28;20215;-58
2022/05/15 01:28:45;;;;;;;8.87;3.70;;;11.00;99.90;;;;;;5072386;28;20293;-57
2022/05/15 01:31:12;;;;;;;7.07;3.40;;;10.90;99.90;;;;;;5072187;28;20200;-57
2022/05/15 01:33:39;;;;;;;5.40;3.53;;;10.90;99.90;;;;;;5071893;28;20484;-58
2022/05/15 01:36:08;;;;;;;7.37;3.30;;;10.90;99.90;;;;;;5071890;28;20205;-58
2022/05/15 01:38:35;;;;;;;6.43;3.53;;;10.90;99.90;;;;;;5072005;28;20224;-56
2022/05/15 01:41:02;;;;;;;9.37;4.30;;;10.90;99.90;;;;;;5071862;28;20208;-57
2022/05/15 01:43:28;;;;;;;6.50;3.77;;;10.80;99.90;;;;;;5072021;28;20557;-58
2022/05/15 01:45:55;;;;;;;6.50;3.50;;;10.80;99.90;;;;;;5072045;28;20204;-56
2022/05/15 01:48:22;;;;;;;7.53;3.63;;;10.80;99.90;;;;;;5071932;28;20201;-56
2022/05/15 01:50:49;;;;;;;7.70;4.00;;;10.80;99.90;;;;;;5071667;28;20200;-57
2022/05/15 01:53:17;;;;;;;7.60;3.77;;;10.80;99.90;;;;;;5071967;28;20204;-59
2022/05/15 01:55:44;;;;;;;8.97;4.00;;;10.80;99.90;;;;;;5071726;28;20650;-57
2022/05/15 01:58:10;;;;;;;7.60;4.50;;;10.70;99.90;;;;;;5071445;28;20207;-59
2022/05/15 02:00:38;;;;;;;8.63;4.10;;;10.70;99.90;;;;;;5071828;28;20319;-55
2022/05/15 02:03:05;;;;;;;9.63;4.40;;;10.60;99.90;;;;;;5071716;28;20211;-55
2022/05/15 02:05:32;;;;;;;7.13;4.20;;;10.60;99.90;;;;;;5071673;28;20231;-57
2022/05/15 02:07:59;;;;;;;7.43;4.47;;;10.70;99.90;;;;;;5071698;28;20204;-57
2022/05/15 02:10:27;;;;;;;6.43;4.53;;;10.60;99.90;;;;;;5071782;28;20208;-56
2022/05/15 02:12:54;;;;;;;9.40;4.60;;;10.60;99.90;;;;;;5071621;28;20233;-56
2022/05/15 02:15:20;;;;;;;10.67;4.70;;;10.60;99.90;;;;;;5071615;28;20201;-57
2022/05/15 02:17:48;;;;;;;7.70;4.73;;;10.60;99.90;;;;;;5071651;28;20595;-57
2022/05/15 02:20:16;;;;;;;7.43;4.73;;;10.60;99.90;;;;;;5071476;28;20244;-57
2022/05/15 02:22:43;;;;;;;7.70;4.40;;;10.60;99.90;;;;;;5071365;28;20200;-58
2022/05/15 02:25:14;;;;;;;7.20;5.00;;;10.50;99.90;;;;;;5071591;28;20216;-57
2022/05/15 02:27:42;;;;;;;8.23;4.70;;;10.50;99.90;;;;;;5071630;28;20193;-57
2022/05/15 02:30:11;;;;;;;6.77;4.60;;;10.60;99.90;;;;;;5071371;28;20201;-58
2022/05/15 02:32:37;;;;;;;10.43;5.30;;;10.60;99.90;;;;;;5071287;28;20212;-57
2022/05/15 02:35:05;;;;;;;7.60;5.00;;;10.70;99.90;;;;;;5071525;28;20587;-57
2022/05/15 02:37:32;;;;;;;7.40;5.03;;;10.70;99.90;;;;;;5071578;28;20663;-58
2022/05/15 02:39:59;;;;;;;8.97;4.77;;;10.70;99.90;;;;;;5071015;28;20228;-58
2022/05/15 02:42:26;;;;;;;11.23;5.03;;;10.70;99.90;;;;;;5071094;28;20362;-58
2022/05/15 02:44:54;;;;;;;10.47;5.23;;;10.60;99.90;;;;;;5071339;28;20201;-57
2022/05/15 02:47:21;;;;;;;9.33;5.40;;;10.60;99.90;;;;;;5071452;28;20614;-57
2022/05/15 02:52:32;;;;;;;6.90;4.97;;;10.50;99.90;;;;;;5071170;28;20187;-57
2022/05/15 02:54:59;;;;;;;8.23;5.40;;;10.50;99.90;;;;;;5071048;28;20209;-58
2022/05/15 02:57:26;;;;;;;9.80;5.50;;;10.50;99.90;;;;;;5070964;28;20236;-57
2022/05/15 02:59:54;;;;;;;7.10;4.93;;;10.50;99.90;;;;;;5071113;28;20229;-56
2022/05/15 03:02:21;;;;;;;9.10;5.97;;;10.50;99.90;;;;;;5071299;28;20205;-55
2022/05/15 03:04:49;;;;;;;8.23;5.30;;;10.50;99.90;;;;;;5070844;28;20224;-56
2022/05/15 03:07:16;;;;;;;9.30;5.00;;;10.50;99.90;;;;;;5071192;28;20259;-56
2022/05/15 03:09:43;;;;;;;10.67;5.47;;;10.60;99.90;;;;;;5075021;28;20205;-58
2022/05/15 03:12:10;;;;;;;10.17;5.40;;;10.60;99.90;;;;;;5074787;28;20576;-60
2022/05/15 03:14:37;;;;;;;9.90;5.53;;;10.60;99.90;;;;;;5074621;28;20204;-59
2022/05/15 03:17:05;;;;;;;7.27;5.23;;;10.60;99.90;;;;;;5074614;28;20201;-57
2022/05/15 03:19:32;;;;;;;10.23;5.50;;;10.70;99.90;;;;;;5074275;28;20255;-59
2022/05/15 03:21:59;;;;;;;8.13;5.40;;;10.70;99.90;;;;;;5074295;28;20211;-56
2022/05/15 03:24:26;;;;;;;7.70;5.03;;;10.80;99.90;;;;;;5074426;28;20208;-59
2022/05/15 03:26:53;;;;;;;10.33;5.17;;;10.80;99.90;;;;;;5074389;28;20212;-58
2022/05/15 03:29:20;;;;;;;10.83;5.70;;;10.80;99.90;;;;;;5074250;28;20208;-58
2022/05/15 03:31:47;;;;;;;13.33;5.53;;;10.90;99.90;;;;;;5074356;28;20674;-59
2022/05/15 03:34:17;;;;;;;11.10;5.60;;;11.00;99.90;;;;;;5074480;28;20212;-57
2022/05/15 03:36:46;;;;;;;16.73;5.93;;;11.00;99.90;;;;;;5074686;28;20254;-57
2022/05/15 03:39:13;;;;;;;12.30;5.80;;;11.00;99.90;;;;;;5074225;28;20229;-57
2022/05/15 03:41:41;;;;;;;10.20;5.50;;;11.00;99.90;;;;;;5074350;28;20734;-57
2022/05/15 03:44:09;;;;;;;10.00;5.40;;;11.10;99.90;;;;;;5073769;28;20213;-57
2022/05/15 03:46:36;;;;;;;12.67;5.30;;;11.10;99.90;;;;;;5073975;28;20294;-56
2022/05/15 03:49:03;;;;;;;7.83;5.17;;;11.10;99.90;;;;;;5074035;28;20209;-57
2022/05/15 03:51:31;;;;;;;10.17;5.03;;;11.10;99.90;;;;;;5074224;28;20212;-58
2022/05/15 03:53:58;;;;;;;9.47;5.17;;;11.10;99.90;;;;;;5074031;28;20484;-57
2022/05/15 03:59:06;;;;;;;13.63;5.73;;;11.10;99.90;;;;;;5073415;28;20207;-55
2022/05/15 04:01:33;;;;;;;8.47;4.73;;;11.10;99.90;;;;;;5073942;28;20330;-57
2022/05/15 04:04:00;;;;;;;7.70;4.90;;;11.20;99.90;;;;;;5073725;28;20229;-57
2022/05/15 04:06:28;;;;;;;10.10;5.40;;;11.20;99.90;;;;;;5073607;28;20220;-58
2022/05/15 04:08:56;;;;;;;11.93;5.53;;;11.30;99.90;;;;;;5073376;28;20219;-58
2022/05/15 04:11:23;;;;;;;9.93;5.30;;;11.30;99.90;;;;;;5073604;28;20205;-58
2022/05/15 04:13:50;;;;;;;18.97;5.40;;;11.30;99.90;;;;;;5073799;28;20201;-59
2022/05/15 04:16:16;;;;;;;7.00;5.03;;;11.30;99.90;;;;;;5073787;28;20216;-60
2022/05/15 04:18:43;;;;;;;7.77;4.93;;;11.20;99.90;;;;;;5072865;28;20241;-57
2022/05/15 04:21:11;;;;;;;7.63;4.80;;;11.20;99.90;;;;;;5073734;28;20605;-57
2022/05/15 04:23:38;;;;;;;10.27;4.90;;;11.30;99.90;;;;;;5073750;28;20593;-55
2022/05/15 04:26:06;;;;;;;12.80;4.97;;;11.40;99.90;;;;;;5073652;28;20608;-58
2022/05/15 04:28:34;;;;;;;10.03;5.30;;;11.50;99.90;;;;;;5073357;28;20205;-57
2022/05/15 04:31:01;;;;;;;7.87;4.67;;;11.50;99.90;;;;;;5073330;28;20295;-59
2022/05/15 04:33:28;;;;;;;7.40;4.40;;;11.60;99.90;;;;;;5073236;28;20208;-56
2022/05/15 04:35:55;;;;;;;8.20;5.13;;;11.70;99.90;;;;;;5073269;28;20542;-59
2022/05/15 04:38:23;;;;;;;8.23;5.07;;;11.70;99.90;;;;;;5073249;28;20671;-57
2022/05/15 04:40:50;;;;;;;12.60;5.03;;;11.80;99.90;;;;;;5072950;28;20274;-57
2022/05/15 04:43:18;;;;;;;10.17;4.80;;;11.90;99.90;;;;;;5073087;28;20208;-60
2022/05/15 04:45:45;;;;;;;11.30;4.93;;;12.00;99.90;;;;;;5072726;28;20215;-56
2022/05/15 04:48:13;;;;;;;8.97;4.40;;;12.00;99.90;;;;;;5072791;28;20255;-63
2022/05/15 04:50:40;;;;;;;10.03;4.27;;;12.10;99.90;;;;;;5072616;28;20200;-57
2022/05/15 04:53:07;;;;;;;13.60;4.80;;;12.10;99.90;;;;;;5072801;28;20235;-55
2022/05/15 04:55:35;;;;;;;7.10;4.63;;;12.10;99.90;;;;;;5073038;28;20207;-58
2022/05/15 04:58:02;;;;;;;12.87;5.87;;;12.20;99.90;;;;;;5072680;28;20556;-56
2022/05/15 05:00:31;;;;;;;8.20;4.40;;;12.20;99.90;;;;;;5072931;28;20225;-56
2022/05/15 05:02:57;;;;;;;9.00;4.47;;;12.30;99.90;;;;;;5072350;28;20243;-57
2022/05/15 05:05:24;;;;;;;5.87;3.97;;;12.40;99.90;;;;;;5072571;28;20232;-59
2022/05/15 05:07:51;;;;;;;6.53;3.87;;;12.50;99.90;;;;;;5072765;28;20563;-55
2022/05/15 05:10:18;;;;;;;6.97;4.07;;;12.70;99.90;;;;;;5072797;28;20197;-59
2022/05/15 05:12:45;;;;;;;8.83;4.20;;;12.70;99.90;;;;;;5072415;28;20205;-57
2022/05/15 05:15:12;;;;;;;12.37;4.53;;;12.80;99.90;;;;;;5072311;28;20215;-58
2022/05/15 05:17:41;;;;;;;5.97;3.93;;;12.90;99.90;;;;;;5072342;28;20204;-57
2022/05/15 05:20:09;;;;;;;8.27;4.30;;;13.00;99.90;;;;;;5071956;28;20244;-57
2022/05/15 05:22:36;;;;;;;6.67;3.50;;;13.00;99.90;;;;;;5072257;28;20728;-59
2022/05/15 05:25:03;;;;;;;8.97;3.70;;;13.10;99.90;;;;;;5072195;28;20209;-60
2022/05/15 05:27:30;;;;;;;9.60;3.83;;;13.20;99.90;;;;;;5072394;28;20215;-57
2022/05/15 05:29:57;;;;;;;6.87;3.53;;;13.30;99.90;;;;;;5071918;28;20197;-55
2022/05/15 05:32:24;;;;;;;5.63;3.40;;;13.30;99.90;;;;;;5072002;28;20240;-57
2022/05/15 05:34:52;;;;;;;6.53;3.50;;;13.40;99.90;;;;;;5071699;28;20205;-57
2022/05/15 05:37:19;;;;;;;6.50;3.63;;;13.50;99.90;;;;;;5072428;28;20646;-57
2022/05/15 05:39:46;;;;;;;6.80;3.17;;;13.50;99.90;;;;;;5071568;28;20201;-56
2022/05/15 05:42:13;;;;;;;8.03;3.77;;;13.60;99.90;;;;;;5072023;28;20204;-56
2022/05/15 05:44:40;;;;;;;7.70;3.67;;;13.70;99.90;;;;;;5071604;28;20212;-60
2022/05/15 05:47:07;;;;;;;5.63;3.03;;;13.80;99.90;;;;;;5071735;28;20209;-56
2022/05/15 05:49:34;;;;;;;8.57;3.70;;;13.80;99.90;;;;;;5071548;28;20204;-58
2022/05/15 05:52:02;;;;;;;5.50;3.40;;;13.90;99.90;;;;;;5071987;28;20705;-56
2022/05/15 05:54:29;;;;;;;10.43;3.63;;;13.90;99.90;;;;;;5071885;28;20537;-57
2022/05/15 05:56:58;;;;;;;5.57;3.40;;;14.00;99.90;;;;;;5071914;28;20205;-56
2022/05/15 05:59:25;;;;;;;10.03;4.00;;;14.00;99.90;;;;;;5071969;28;20291;-58
2022/05/15 06:01:51;;;;;;;7.80;3.77;;;14.00;99.90;;;;;;5071480;28;20316;-59
2022/05/15 06:07:04;;;;;;;6.93;3.57;;;14.00;99.90;;;;;;5071673;28;20436;-57
2022/05/15 06:09:32;;;;;;;7.93;3.60;;;14.00;99.90;;;;;;5071757;28;20200;-57
2022/05/15 06:11:58;;;;;;;8.07;3.57;;;14.00;99.90;;;;;;5071872;28;20215;-59
2022/05/15 06:14:25;;;;;;;4.50;3.10;;;14.00;99.90;;;;;;5071191;28;20235;-56
2022/05/15 06:16:52;;;;;;;9.13;3.27;;;14.00;99.90;;;;;;5071957;28;20562;-57
2022/05/15 06:19:19;;;;;;;6.17;3.40;;;14.10;99.90;;;;;;5071321;28;20232;-60
2022/05/15 06:21:45;;;;;;;6.53;3.17;;;14.10;99.90;;;;;;5071314;28;20231;-56
2022/05/15 06:24:14;;;;;;;5.90;3.53;;;14.00;99.90;;;;;;5071641;28;20207;-60
2022/05/15 06:26:41;;;;;;;6.93;3.30;;;14.00;99.90;;;;;;5071474;28;20214;-58
2022/05/15 06:29:07;;;;;;;5.23;2.80;;;14.10;99.90;;;;;;5071313;28;20228;-58
2022/05/15 06:31:34;;;;;;;10.93;3.73;;;14.20;99.90;;;;;;5071122;28;20214;-57
2022/05/15 06:34:01;;;;;;;10.23;3.40;;;14.20;99.90;;;;;;5071271;28;20215;-58
2022/05/15 06:36:28;;;;;;;6.83;3.33;;;14.30;99.90;;;;;;5071477;28;20643;-58
2022/05/15 06:38:54;;;;;;;4.30;2.80;;;14.40;99.90;;;;;;5071307;28;20212;-57
2022/05/15 06:41:23;;;;;;;6.17;3.00;;;14.40;99.90;;;;;;5071353;28;20228;-57
2022/05/15 06:43:50;;;;;;;5.60;3.00;;;14.50;99.90;;;;;;5075238;28;20208;-57
2022/05/15 06:46:16;;;;;;;8.97;2.90;;;14.60;99.90;;;;;;5075626;28;20224;-56
2022/05/15 06:48:43;;;;;;;5.13;2.90;;;14.70;99.90;;;;;;5075252;28;20207;-57
2022/05/15 06:51:14;;;;;;;7.63;2.63;;;14.80;99.90;;;;;;5075278;28;20573;-58
2022/05/15 06:53:41;;;;;;;5.97;2.73;;;14.80;99.90;;;;;;5075128;28;20310;-58
2022/05/15 06:58:54;;;;;;;7.00;2.80;;;15.00;99.90;;;;;;5075017;28;20184;-58
2022/05/15 07:01:20;;;;;;;5.73;2.50;;;15.10;99.90;;;;;;5074912;28;20690;-58
2022/05/15 07:03:47;;;;;;;5.90;2.60;;;15.10;99.90;;;;;;5075004;28;20231;-57
2022/05/15 07:06:15;;;;;;;5.00;2.63;;;15.10;99.90;;;;;;5074985;28;20309;-57
2022/05/15 07:08:42;;;;;;;7.03;2.90;;;15.20;99.90;;;;;;5074813;28;20307;-57
2022/05/15 07:11:12;;;;;;;9.00;3.13;;;15.20;99.90;;;;;;5074996;28;20196;-58
2022/05/15 07:13:38;;;;;;;6.70;2.50;;;15.20;99.90;;;;;;5074855;28;20208;-58
2022/05/15 07:16:08;;;;;;;5.33;2.70;;;15.30;99.90;;;;;;5074929;28;20200;-58
2022/05/15 07:18:36;;;;;;;9.07;3.00;;;15.40;99.90;;;;;;5074449;28;20236;-57
2022/05/15 07:21:03;;;;;;;6.07;2.67;;;15.60;99.90;;;;;;5074802;28;20247;-58
2022/05/15 07:23:30;;;;;;;6.20;2.70;;;15.70;99.90;;;;;;5074743;28;20534;-58
2022/05/15 07:25:57;;;;;;;8.60;2.60;;;15.80;99.90;;;;;;5074778;28;20207;-58
2022/05/15 07:28:24;;;;;;;10.37;2.50;;;15.90;99.90;;;;;;5074411;28;20204;-56
2022/05/15 07:30:51;;;;;;;9.50;2.80;;;16.10;99.90;;;;;;5074283;28;20638;-59
2022/05/15 07:33:21;;;;;;;5.60;3.20;;;16.10;99.90;;;;;;5074190;28;20205;-57
2022/05/15 07:35:47;;;;;;;8.97;2.77;;;16.10;99.90;;;;;;5074613;28;20209;-57
2022/05/15 07:38:15;;;;;;;5.40;2.30;;;16.10;99.90;;;;;;5074092;28;20217;-58
2022/05/15 07:40:42;;;;;;;7.60;2.37;;;16.20;99.90;;;;;;5074294;28;20224;-58
2022/05/15 07:43:10;;;;;;;7.60;2.70;;;16.30;99.90;;;;;;5074094;28;20223;-60
2022/05/15 07:45:37;;;;;;;4.83;2.40;;;16.30;99.90;;;;;;5074542;28;20205;-58
2022/05/15 07:48:06;;;;;;;10.77;2.70;;;16.30;99.90;;;;;;5074385;28;20211;-59
2022/05/15 07:50:35;;;;;;;6.83;2.87;;;16.20;99.90;;;;;;5074115;28;20201;-59
2022/05/15 07:53:02;;;;;;;7.23;3.00;;;16.30;99.90;;;;;;5073673;28;20216;-56
2022/05/15 07:55:29;;;;;;;7.50;2.77;;;16.30;99.90;;;;;;5073764;28;20209;-58
2022/05/15 07:57:56;;;;;;;5.83;2.47;;;16.40;99.90;;;;;;5074212;28;20211;-59
2022/05/15 08:00:23;;;;;;;7.80;2.23;;;16.40;99.90;;;;;;5074009;28;20207;-57
2022/05/15 08:02:50;;;;;;;7.27;2.30;;;16.40;99.90;;;;;;5073896;28;20207;-58
2022/05/15 08:08:10;;;;;;;5.63;2.67;;;16.40;99.90;;;;;;5073800;28;20188;-59
2022/05/15 08:10:39;;;;;;;4.53;2.20;;;16.40;99.90;;;;;;5073798;28;20185;-59
2022/05/15 08:13:07;;;;;;;8.63;2.60;;;16.50;99.90;;;;;;5073577;28;20212;-58
2022/05/15 08:15:35;;;;;;;5.17;2.50;;;16.60;99.90;;;;;;5073645;28;20216;-57
2022/05/15 08:23:33;;;;;;;3.73;2.03;;;16.60;99.90;;;;;;5073462;28;20210;-57
2022/05/15 08:23:40;;;;;;;6.03;2.20;;;16.60;99.90;;;;;;5073511;28;20207;-59
2022/05/15 08:26:07;;;;;;;3.93;2.17;;;16.60;99.90;;;;;;5073586;28;20193;-58
2022/05/15 08:28:35;;;;;;;6.50;2.30;;;16.60;99.90;;;;;;5073499;28;20671;-57
2022/05/15 08:31:02;;;;;;;8.73;2.60;;;16.60;99.90;;;;;;5073458;28;20645;-56
2022/05/15 08:33:30;;;;;;;4.37;1.90;;;16.60;99.90;;;;;;5073382;28;20547;-57
2022/05/15 08:35:57;;;;;;;5.30;2.03;;;16.70;99.90;;;;;;5073376;28;20548;-58
2022/05/15 08:38:24;;;;;;;4.73;2.10;;;16.70;99.90;;;;;;5072966;28;20208;-58
2022/05/15 08:40:58;;;;;;;7.50;2.30;;;16.70;99.90;;;;;;5073117;28;20225;-58
2022/05/15 08:43:40;;;;;;;5.73;2.30;;;16.70;99.90;;;;;;5073222;28;20212;-59
2022/05/15 08:46:18;;;;;;;6.97;2.10;;;16.90;99.90;;;;;;5073229;28;20543;-58
2022/05/15 08:48:45;;;;;;;7.10;2.27;;;17.00;99.90;;;;;;5073216;28;20204;-62
2022/05/15 08:51:14;;;;;;;9.00;2.03;;;17.10;99.90;;;;;;5072947;28;20212;-59
2022/05/15 08:53:43;;;;;;;4.43;2.10;;;17.20;99.90;;;;;;5072844;28;20219;-58
2022/05/15 08:56:14;;;;;;;8.73;2.50;;;17.20;99.90;;;;;;5072633;28;20224;-59
2022/05/15 08:58:47;;;;;;;7.03;2.50;;;17.20;99.90;;;;;;5073028;28;20201;-58
2022/05/15 09:01:18;;;;;;;6.80;2.03;;;17.20;99.90;;;;;;5072972;28;20217;-61
2022/05/15 09:03:45;;;;;;;6.43;2.57;;;17.20;99.90;;;;;;5072961;28;20619;-56
2022/05/15 09:06:25;;;;;;;7.57;2.20;;;17.20;99.90;;;;;;5072623;28;20575;-60
2022/05/15 09:09:00;;;;;;;4.33;2.07;;;17.20;99.90;;;;;;5072619;28;20190;-60
2022/05/15 09:11:44;;;;;;;5.73;2.13;;;17.20;99.90;;;;;;5072834;28;20192;-58
2022/05/15 09:14:15;;;;;;;5.97;2.10;;;17.20;99.90;;;;;;5072660;28;20200;-58
2022/05/15 09:16:55;;;;;;;9.23;2.40;;;17.40;99.90;;;;;;5072569;28;20208;-59
2022/05/15 09:19:22;;;;;;;6.23;2.43;;;17.40;99.90;;;;;;5072348;28;20247;-58
2022/05/15 09:21:54;;;;;;;7.50;2.60;;;17.50;99.90;;;;;;5072801;28;20225;-57
2022/05/15 09:24:33;;;;;;;6.03;2.03;;;17.50;99.90;;;;;;5072455;28;20188;-59
2022/05/15 09:27:14;;;;;;;4.83;2.10;;;17.40;99.90;;;;;;5072299;28;20238;-56
2022/05/15 09:29:41;;;;;;;5.90;2.40;;;17.30;99.90;;;;;;5072107;28;20188;-58
2022/05/15 09:32:25;;;;;;;6.30;1.90;;;17.20;99.90;;;;;;5072313;28;20228;-58
2022/05/15 09:34:52;;;;;;;6.80;2.33;;;17.20;99.90;;;;;;5072527;28;20198;-59
2022/05/15 09:40:14;;;;;;;4.07;1.90;;;17.30;99.90;;;;;;5071828;28;20307;-60
2022/05/15 09:45:39;;;;;;;3.77;1.97;;;17.50;99.90;;;;;;5071903;28;20184;-56
2022/05/15 09:48:11;;;;;;;6.87;2.10;;;17.60;99.90;;;;;;5072074;28;20686;-59
2022/05/15 09:50:44;;;;;;;5.33;2.10;;;17.60;99.90;;;;;;5071904;28;20193;-59
2022/05/15 09:53:16;;;;;;;4.57;2.07;;;17.80;99.90;;;;;;5071845;28;20194;-60
2022/05/15 09:55:57;;;;;;;6.20;2.37;;;17.80;99.90;;;;;;5071748;28;20185;-58
2022/05/15 09:58:25;;;;;;;10.13;2.40;;;17.90;99.90;;;;;;5072061;28;20553;-58
2022/05/15 10:01:12;;;;;;;5.93;2.43;;;18.00;99.90;;;;;;5071852;28;20215;-61
2022/05/15 10:03:39;;;;;;;7.77;2.50;;;18.10;99.90;;;;;;5072065;28;20258;-57
2022/05/15 10:06:08;;;;;;;3.93;2.10;;;18.20;99.90;;;;;;5071839;28;20204;-57
2022/05/15 10:08:36;;;;;;;5.10;2.30;;;18.30;99.90;;;;;;5071837;28;20264;-59
2022/05/15 10:11:07;;;;;;;7.40;2.93;;;18.40;99.90;;;;;;5071603;28;20206;-60
2022/05/15 10:13:40;;;;;;;5.20;2.20;;;18.50;99.90;;;;;;5072180;28;20204;-59
2022/05/15 10:16:10;;;;;;;6.17;2.40;;;18.50;99.90;;;;;;5071381;28;20288;-58
2022/05/15 10:18:45;;;;;;;5.13;1.90;;;18.60;99.90;;;;;;5071372;28;20232;-59
2022/05/15 10:21:13;;;;;;;5.20;2.00;;;18.70;99.90;;;;;;5071310;28;20195;-58
2022/05/15 10:23:45;;;;;;;3.90;1.80;;;18.70;99.90;;;;;;5071732;28;20592;-56
2022/05/15 10:26:19;;;;;;;7.37;2.40;;;18.70;99.90;;;;;;5071483;28;20277;-60
2022/05/15 10:28:53;;;;;;;6.17;2.10;;;18.60;99.60;;;;;;5071553;28;20192;-60
2022/05/15 10:31:24;;;;;;;6.20;2.33;;;18.50;99.80;;;;;;5071430;28;20189;-60
2022/05/15 10:33:55;;;;;;;4.70;2.37;;;18.50;99.90;;;;;;5071611;28;20196;-59
2022/05/15 10:36:41;;;;;;;7.53;2.20;;;18.40;99.40;;;;;;5071685;28;20194;-59
2022/05/15 10:39:15;;;;;;;6.27;2.20;;;18.20;99.70;;;;;;5071050;28;20215;-57
2022/05/15 10:41:51;;;;;;;7.45;2.45;;;18.20;99.90;;;;;;5070866;28;20436;-60
2022/05/15 10:44:31;;;;;;;5.57;2.33;;;18.30;99.90;;;;;;5071590;28;20205;-57
2022/05/15 10:47:03;;;;;;;7.70;2.03;;;18.30;99.90;;;;;;5071351;28;20594;-58
2022/05/15 10:49:45;;;;;;;7.83;2.30;;;18.30;99.90;;;;;;5071329;28;20194;-58
2022/05/15 10:52:23;;;;;;;6.90;2.57;;;18.20;99.90;;;;;;5071574;28;20192;-60
2022/05/15 10:58:00;;;;;;;7.57;2.53;;;18.10;99.90;;;;;;5071106;28;20307;-60
2022/05/15 11:00:38;;;;;;;10.10;2.87;;;17.90;99.90;;;;;;5071120;28;20189;-57
2022/05/15 11:03:42;;;;;;;7.43;2.57;;;17.80;99.90;;;;;;5071043;28;20250;-58
2022/05/15 11:06:31;;;;;;;6.97;2.30;;;17.80;99.90;;;;;;5070605;28;20288;-58
2022/05/15 11:09:05;;;;;;;9.63;2.73;;;17.90;99.90;;;;;;5071047;28;20570;-58
2022/05/15 11:11:47;;;;;;;8.33;3.03;;;17.80;99.90;;;;;;5071185;28;20188;-57
2022/05/15 11:14:22;;;;;;;8.13;2.90;;;17.80;99.90;;;;;;5071169;28;20645;-58
2022/05/15 11:17:01;;;;;;;8.53;3.10;;;17.70;99.90;;;;;;5071031;28;20201;-60
2022/05/15 11:19:35;;;;;;;8.47;2.80;;;17.60;99.90;;;;;;5070789;28;20256;-60
2022/05/15 11:22:20;;;;;;;5.77;2.63;;;17.70;99.90;;;;;;5071015;28;20210;-57
2022/05/15 11:24:52;;;;;;;8.20;2.83;;;17.70;99.90;;;;;;5067763;28;20235;-59
2022/05/15 11:27:26;;;;;;;7.77;2.47;;;17.80;99.90;;;;;;5070786;28;20187;-57
2022/05/15 11:29:56;;;;;;;7.23;2.30;;;17.90;99.90;;;;;;5073326;28;20231;-58
2022/05/15 11:32:57;;;;;;;17.43;3.00;;;18.00;99.90;;;;;;5074748;28;20185;-57
2022/05/15 11:35:28;;;;;;;8.80;2.40;;;18.20;99.90;;;;;;5074614;28;20689;-58
2022/05/15 11:38:21;;;;;;;7.83;2.37;;;18.20;99.10;;;;;;5074492;28;20197;-59
2022/05/15 11:40:50;;;;;;;5.10;2.20;;;18.10;98.30;;;;;;5063597;28;20210;-58
2022/05/15 11:43:58;;;;;;;9.47;2.30;;;18.00;97.90;;;;;;5073932;28;20220;-58
2022/05/15 11:47:00;;;;;;;7.60;2.30;;;17.90;98.00;;;;;;4992480;28;20211;-58
2022/05/15 11:49:33;;;;;;;4.43;2.03;;;17.90;99.00;;;;;;5074445;28;20209;-60
2022/05/15 11:52:16;;;;;;;6.07;2.27;;;17.90;98.50;;;;;;5074227;28;20250;-59
2022/05/15 11:54:45;;;;;;;6.53;2.13;;;18.00;97.90;;;;;;5074070;28;20625;-57
2022/05/15 11:57:14;;;;;;;6.00;2.27;;;18.00;97.70;;;;;;5074260;28;20301;-59
2022/05/15 11:59:51;;;;;;;6.63;2.37;;;18.10;97.40;;;;;;5073706;28;20213;-57
2022/05/15 12:02:42;;;;;;;5.93;2.23;;;18.10;98.10;;;;;;5073774;28;20209;-57
2022/05/15 12:05:23;;;;;;;7.97;2.30;;;18.10;97.00;;;;;;5074066;28;20246;-56
2022/05/15 12:07:56;;;;;;;15.83;2.53;;;18.10;95.70;;;;;;5073872;28;20195;-60
2022/05/15 12:10:54;;;;;;;7.80;1.87;;;18.10;95.90;;;;;;5073601;28;20289;-59
2022/05/15 12:13:34;;;;;;;8.90;2.20;;;18.10;96.50;;;;;;5073818;28;20454;-59
2022/05/15 12:16:25;;;;;;;8.47;2.60;;;18.10;96.70;;;;;;5073469;28;20193;-55
2022/05/15 12:19:03;;;;;;;11.60;3.03;;;18.10;97.60;;;;;;5073363;28;20240;-59
2022/05/15 12:21:46;;;;;;;7.50;2.47;;;17.80;97.80;;;;;;5073592;28;20190;-57
2022/05/15 12:24:28;;;;;;;5.17;2.40;;;17.60;98.00;;;;;;5073738;28;20252;-58
2022/05/15 12:27:07;;;;;;;8.13;2.30;;;17.40;98.50;;;;;;5073621;28;20193;-59
2022/05/15 12:29:50;;;;;;;13.83;2.50;;;17.50;98.40;;;;;;5073102;28;20185;-59
2022/05/15 12:32:23;;;;;;;9.17;2.60;;;17.50;98.20;;;;;;5073564;28;20543;-57
2022/05/15 12:34:51;;;;;;;7.07;2.10;;;17.60;98.30;;;;;;5073320;28;20197;-59
2022/05/15 12:37:23;;;;;;;10.73;2.43;;;17.60;97.50;;;;;;5073520;28;20202;-56
2022/05/15 12:39:52;;;;;;;9.13;2.10;;;17.80;97.50;;;;;;5072713;28;20195;-60
2022/05/15 12:42:23;;;;;;;4.33;1.70;;;17.90;97.40;;;;;;5073260;28;20230;-62
2022/05/15 12:45:02;;;;;;;5.57;2.27;;;17.90;96.00;;;;;;5073167;28;20199;-58
2022/05/15 12:47:32;;;;;;;6.13;2.33;;;18.00;96.30;;;;;;5073290;28;20649;-59
2022/05/15 12:50:02;;;;;;;4.57;1.83;;;18.00;95.80;;;;;;5072848;28;20213;-59
2022/05/15 12:52:32;;;;;;;10.10;2.20;;;18.10;95.70;;;;;;5073014;28;20676;-59
2022/05/15 12:55:00;;;;;;;6.50;2.10;;;18.10;95.70;;;;;;5072968;28;20622;-60
2022/05/15 12:57:28;;;;;;;11.33;2.30;;;18.20;95.60;;;;;;5072592;28;20218;-58
2022/05/15 12:59:56;;;;;;;5.30;1.90;;;18.20;95.70;;;;;;5072754;28;20209;-58
2022/05/15 13:02:30;;;;;;;5.27;1.87;;;18.20;95.10;;;;;;5072381;28;20227;-57
2022/05/15 13:04:59;;;;;;;3.37;1.57;;;18.20;94.50;;;;;;5072932;28;20553;-60
2022/05/15 13:07:27;;;;;;;4.43;1.50;;;18.00;93.10;;;;;;5072834;28;20213;-58
2022/05/15 13:10:01;;;;;;;4.70;1.70;;;17.90;93.80;;;;;;5072666;28;20672;-58
2022/05/15 13:12:29;;;;;;;4.03;1.90;;;18.00;93.50;;;;;;5072514;28;20195;-58
2022/05/15 13:14:58;;;;;;;4.17;1.77;;;18.00;93.70;;;;;;5072673;28;20232;-59
2022/05/15 13:17:32;;;;;;;7.73;2.07;;;18.20;93.60;;;;;;5072664;28;20296;-57
2022/05/15 13:19:59;;;;;;;5.90;1.60;;;18.30;93.50;;;;;;5072344;28;20240;-57
2022/05/15 13:22:31;;;;;;;6.17;1.77;;;18.40;93.10;;;;;;5072592;28;20253;-58
2022/05/15 13:25:05;;;;;;;6.27;1.87;;;18.40;92.90;;;;;;5072263;28;20192;-59
2022/05/15 13:27:36;;;;;;;5.10;1.80;;;18.40;92.90;;;;;;5072459;28;20211;-58